sensor_id;sensor_type;location;lat;lon;timestamp;pressure;altitude;pressure_sealevel;temperature;humidity
76011;BME280;64701;43.536;1.478;2023-12-22T00:01:17;100398.47;;;11.04;100.00
76011;BME280;64701;43.536;1.478;2023-12-22T00:03:42;100401.19;;;10.96;100.00
76011;BME280;64701;43.536;1.478;2023-12-22T00:06:08;100395.69;;;10.97;100.00
76011;BME280;64701;43.536;1.478;2023-12-22T00:08:33;100388.56;;;10.98;100.00
76011;BME280;64701;43.536;1.478;2023-12-22T00:10:58;100397.84;;;11.02;100.00
76011;BME280;64701;43.536;1.478;2023-12-22T00:13:24;100388.25;;;11.01;100.00
76011;BME280;64701;43.536;1.478;2023-12-22T00:15:49;100390.06;;;11.00;100.00
76011;BME280;64701;43.536;1.478;2023-12-22T00:18:15;100386.22;;;11.03;100.00
76011;BME280;64701;43.536;1.478;2023-12-22T00:20:40;100383.94;;;11.00;100.00
76011;BME280;64701;43.536;1.478;2023-12-22T00:23:05;100375.00;;;11.01;100.00
76011;BME280;64701;43.536;1.478;2023-12-22T00:25:30;100396.00;;;11.02;100.00
76011;BME280;64701;43.536;1.478;2023-12-22T00:27:56;100398.84;;;11.01;100.00
76011;BME280;64701;43.536;1.478;2023-12-22T00:30:21;100391.06;;;10.99;100.00
76011;BME280;64701;43.536;1.478;2023-12-22T00:32:49;100390.09;;;10.92;100.00
76011;BME280;64701;43.536;1.478;2023-12-22T00:35:14;100395.91;;;10.88;100.00
76011;BME280;64701;43.536;1.478;2023-12-22T00:37:39;100389.25;;;10.92;100.00
76011;BME280;64701;43.536;1.478;2023-12-22T00:40:04;100384.78;;;10.92;100.00
76011;BME280;64701;43.536;1.478;2023-12-22T00:42:32;100399.34;;;10.96;100.00
76011;BME280;64701;43.536;1.478;2023-12-22T00:44:57;100408.25;;;11.03;100.00
76011;BME280;64701;43.536;1.478;2023-12-22T00:47:22;100416.56;;;11.00;100.00
76011;BME280;64701;43.536;1.478;2023-12-22T00:49:47;100406.00;;;10.92;100.00
76011;BME280;64701;43.536;1.478;2023-12-22T00:52:13;100394.03;;;10.96;100.00
76011;BME280;64701;43.536;1.478;2023-12-22T00:54:38;100416.94;;;10.89;100.00
76011;BME280;64701;43.536;1.478;2023-12-22T00:57:03;100423.88;;;10.90;100.00
76011;BME280;64701;43.536;1.478;2023-12-22T00:59:29;100420.59;;;10.88;100.00
76011;BME280;64701;43.536;1.478;2023-12-22T01:01:54;100414.94;;;10.91;100.00
76011;BME280;64701;43.536;1.478;2023-12-22T01:04:19;100406.81;;;10.93;100.00
76011;BME280;64701;43.536;1.478;2023-12-22T01:06:44;100410.47;;;10.92;100.00
76011;BME280;64701;43.536;1.478;2023-12-22T01:09:10;100403.50;;;10.91;100.00
76011;BME280;64701;43.536;1.478;2023-12-22T01:11:35;100411.34;;;10.84;100.00
76011;BME280;64701;43.536;1.478;2023-12-22T01:14:00;100413.31;;;10.82;100.00
76011;BME280;64701;43.536;1.478;2023-12-22T01:16:26;100399.38;;;10.88;100.00
76011;BME280;64701;43.536;1.478;2023-12-22T01:18:51;100384.19;;;10.82;100.00
76011;BME280;64701;43.536;1.478;2023-12-22T01:21:16;100401.38;;;10.86;100.00
76011;BME280;64701;43.536;1.478;2023-12-22T01:23:42;100406.34;;;10.89;100.00
76011;BME280;64701;43.536;1.478;2023-12-22T01:26:07;100398.09;;;10.84;100.00
76011;BME280;64701;43.536;1.478;2023-12-22T01:28:33;100394.41;;;10.85;100.00
76011;BME280;64701;43.536;1.478;2023-12-22T01:30:58;100400.75;;;10.84;100.00
76011;BME280;64701;43.536;1.478;2023-12-22T01:33:23;100404.84;;;10.87;100.00
76011;BME280;64701;43.536;1.478;2023-12-22T01:35:49;100407.19;;;10.90;100.00
76011;BME280;64701;43.536;1.478;2023-12-22T01:38:15;100405.50;;;10.89;100.00
76011;BME280;64701;43.536;1.478;2023-12-22T01:40:40;100419.28;;;10.84;100.00
76011;BME280;64701;43.536;1.478;2023-12-22T01:43:05;100419.28;;;10.84;100.00
76011;BME280;64701;43.536;1.478;2023-12-22T01:45:31;100411.66;;;10.89;100.00
76011;BME280;64701;43.536;1.478;2023-12-22T01:47:56;100421.41;;;10.89;100.00
76011;BME280;64701;43.536;1.478;2023-12-22T01:50:22;100433.16;;;10.86;100.00
76011;BME280;64701;43.536;1.478;2023-12-22T01:52:47;100435.50;;;10.81;100.00
76011;BME280;64701;43.536;1.478;2023-12-22T01:55:13;100435.50;;;10.81;100.00
76011;BME280;64701;43.536;1.478;2023-12-22T01:57:39;100438.16;;;10.81;100.00
76011;BME280;64701;43.536;1.478;2023-12-22T02:00:05;100440.50;;;10.76;100.00
76011;BME280;64701;43.536;1.478;2023-12-22T02:02:33;100433.69;;;10.74;100.00
76011;BME280;64701;43.536;1.478;2023-12-22T02:04:58;100428.91;;;10.77;100.00
76011;BME280;64701;43.536;1.478;2023-12-22T02:07:24;100423.25;;;10.80;100.00
76011;BME280;64701;43.536;1.478;2023-12-22T02:09:50;100419.47;;;10.75;100.00
76011;BME280;64701;43.536;1.478;2023-12-22T02:12:15;100420.97;;;10.77;100.00
76011;BME280;64701;43.536;1.478;2023-12-22T02:14:40;100421.59;;;10.79;100.00
76011;BME280;64701;43.536;1.478;2023-12-22T02:17:10;100407.34;;;10.88;100.00
76011;BME280;64701;43.536;1.478;2023-12-22T02:19:43;100410.31;;;10.85;100.00
76011;BME280;64701;43.536;1.478;2023-12-22T02:22:09;100396.75;;;10.80;100.00
76011;BME280;64701;43.536;1.478;2023-12-22T02:24:35;100405.00;;;10.85;100.00
76011;BME280;64701;43.536;1.478;2023-12-22T02:29:35;100395.09;;;10.79;100.00
76011;BME280;64701;43.536;1.478;2023-12-22T02:32:02;100397.75;;;10.79;100.00
76011;BME280;64701;43.536;1.478;2023-12-22T02:34:31;100394.28;;;10.79;100.00
76011;BME280;64701;43.536;1.478;2023-12-22T02:37:00;100395.47;;;10.76;100.00
76011;BME280;64701;43.536;1.478;2023-12-22T02:39:26;100384.56;;;10.71;100.00
76011;BME280;64701;43.536;1.478;2023-12-22T02:41:51;100384.03;;;10.76;100.00
76011;BME280;64701;43.536;1.478;2023-12-22T02:44:16;100391.47;;;10.80;100.00
76011;BME280;64701;43.536;1.478;2023-12-22T02:46:41;100386.34;;;10.79;100.00
76011;BME280;64701;43.536;1.478;2023-12-22T02:49:08;100390.47;;;10.81;100.00
76011;BME280;64701;43.536;1.478;2023-12-22T02:51:33;100386.16;;;10.80;100.00
76011;BME280;64701;43.536;1.478;2023-12-22T02:53:59;100383.81;;;10.85;100.00
76011;BME280;64701;43.536;1.478;2023-12-22T02:56:24;100391.13;;;10.83;100.00
76011;BME280;64701;43.536;1.478;2023-12-22T02:58:49;100380.19;;;10.86;100.00
76011;BME280;64701;43.536;1.478;2023-12-22T03:01:14;100373.41;;;10.84;100.00
76011;BME280;64701;43.536;1.478;2023-12-22T03:03:40;100371.41;;;10.86;100.00
76011;BME280;64701;43.536;1.478;2023-12-22T03:06:05;100378.50;;;10.93;100.00
76011;BME280;64701;43.536;1.478;2023-12-22T03:08:30;100377.00;;;10.91;100.00
76011;BME280;64701;43.536;1.478;2023-12-22T03:10:56;100377.16;;;10.97;100.00
76011;BME280;64701;43.536;1.478;2023-12-22T03:13:21;100369.88;;;10.91;100.00
76011;BME280;64701;43.536;1.478;2023-12-22T03:15:46;100376.84;;;10.92;100.00
76011;BME280;64701;43.536;1.478;2023-12-22T03:18:12;100377.81;;;10.99;100.00
76011;BME280;64701;43.536;1.478;2023-12-22T03:20:37;100379.31;;;11.02;100.00
76011;BME280;64701;43.536;1.478;2023-12-22T03:23:03;100379.31;;;11.02;100.00
76011;BME280;64701;43.536;1.478;2023-12-22T03:25:28;100382.44;;;10.97;100.00
76011;BME280;64701;43.536;1.478;2023-12-22T03:27:54;100366.53;;;10.97;100.00
76011;BME280;64701;43.536;1.478;2023-12-22T03:30:19;100366.41;;;10.91;100.00
76011;BME280;64701;43.536;1.478;2023-12-22T03:32:44;100363.75;;;10.91;100.00
76011;BME280;64701;43.536;1.478;2023-12-22T03:35:09;100366.59;;;10.89;100.00
76011;BME280;64701;43.536;1.478;2023-12-22T03:37:34;100366.59;;;10.89;100.00
76011;BME280;64701;43.536;1.478;2023-12-22T03:40:00;100375.69;;;10.95;100.00
76011;BME280;64701;43.536;1.478;2023-12-22T03:42:25;100384.47;;;10.95;100.00
76011;BME280;64701;43.536;1.478;2023-12-22T03:44:50;100380.47;;;10.99;100.00
76011;BME280;64701;43.536;1.478;2023-12-22T03:47:16;100381.28;;;11.00;100.00
76011;BME280;64701;43.536;1.478;2023-12-22T03:49:41;100384.94;;;10.99;100.00
76011;BME280;64701;43.536;1.478;2023-12-22T03:52:06;100387.13;;;10.95;100.00
76011;BME280;64701;43.536;1.478;2023-12-22T03:54:31;100378.81;;;10.98;100.00
76011;BME280;64701;43.536;1.478;2023-12-22T03:56:57;100380.78;;;10.96;100.00
76011;BME280;64701;43.536;1.478;2023-12-22T03:59:22;100386.91;;;10.97;100.00
76011;BME280;64701;43.536;1.478;2023-12-22T04:01:50;100380.31;;;10.93;100.00
76011;BME280;64701;43.536;1.478;2023-12-22T04:04:17;100380.31;;;10.93;100.00
76011;BME280;64701;43.536;1.478;2023-12-22T04:06:42;100388.94;;;10.95;100.00
76011;BME280;64701;43.536;1.478;2023-12-22T04:09:07;100385.28;;;10.96;100.00
76011;BME280;64701;43.536;1.478;2023-12-22T04:11:32;100384.47;;;10.95;100.00
76011;BME280;64701;43.536;1.478;2023-12-22T04:13:59;100393.19;;;11.04;100.00
76011;BME280;64701;43.536;1.478;2023-12-22T04:16:25;100391.06;;;10.99;100.00
76011;BME280;64701;43.536;1.478;2023-12-22T04:18:50;100400.00;;;10.98;100.00
76011;BME280;64701;43.536;1.478;2023-12-22T04:21:15;100399.16;;;10.98;100.00
76011;BME280;64701;43.536;1.478;2023-12-22T04:23:41;100395.38;;;11.00;100.00
76011;BME280;64701;43.536;1.478;2023-12-22T04:26:06;100403.16;;;11.02;100.00
76011;BME280;64701;43.536;1.478;2023-12-22T04:28:31;100404.28;;;11.08;100.00
76011;BME280;64701;43.536;1.478;2023-12-22T04:30:57;100396.50;;;11.06;100.00
76011;BME280;64701;43.536;1.478;2023-12-22T04:33:22;100395.66;;;11.05;100.00
76011;BME280;64701;43.536;1.478;2023-12-22T04:35:47;100394.38;;;11.01;100.00
76011;BME280;64701;43.536;1.478;2023-12-22T04:38:12;100397.84;;;11.02;100.00
76011;BME280;64701;43.536;1.478;2023-12-22T04:40:38;100403.31;;;11.00;100.00
76011;BME280;64701;43.536;1.478;2023-12-22T04:43:03;100394.69;;;10.98;100.00
76011;BME280;64701;43.536;1.478;2023-12-22T04:45:28;100399.66;;;11.01;100.00
76011;BME280;64701;43.536;1.478;2023-12-22T04:47:53;100403.16;;;11.02;100.00
76011;BME280;64701;43.536;1.478;2023-12-22T04:50:19;100392.72;;;11.00;100.00
76011;BME280;64701;43.536;1.478;2023-12-22T04:52:44;100391.88;;;11.00;100.00
76011;BME280;64701;43.536;1.478;2023-12-22T04:55:09;100396.31;;;11.08;100.00
76011;BME280;64701;43.536;1.478;2023-12-22T04:57:35;100391.88;;;11.00;100.00
76011;BME280;64701;43.536;1.478;2023-12-22T05:00:00;100390.38;;;11.05;100.00
76011;BME280;64701;43.536;1.478;2023-12-22T05:02:25;100392.34;;;11.03;100.00
76011;BME280;64701;43.536;1.478;2023-12-22T05:04:50;100396.50;;;11.06;100.00
76011;BME280;64701;43.536;1.478;2023-12-22T05:07:16;100398.63;;;11.11;100.00
76011;BME280;64701;43.536;1.478;2023-12-22T05:09:41;100397.31;;;11.07;100.00
76011;BME280;64701;43.536;1.478;2023-12-22T05:12:07;100403.25;;;11.09;100.00
76011;BME280;64701;43.536;1.478;2023-12-22T05:14:32;100397.31;;;11.07;100.00
76011;BME280;64701;43.536;1.478;2023-12-22T05:16:57;100397.66;;;11.03;100.00
76011;BME280;64701;43.536;1.478;2023-12-22T05:19:22;100394.38;;;11.01;100.00
76011;BME280;64701;43.536;1.478;2023-12-22T05:21:48;100396.69;;;10.96;100.00
76011;BME280;64701;43.536;1.478;2023-12-22T05:24:17;100396.22;;;10.93;100.00
76011;BME280;64701;43.536;1.478;2023-12-22T05:26:43;100402.34;;;10.93;100.00
76011;BME280;64701;43.536;1.478;2023-12-22T05:29:08;100403.63;;;10.97;100.00
76011;BME280;64701;43.536;1.478;2023-12-22T05:31:34;100418.84;;;11.03;100.00
76011;BME280;64701;43.536;1.478;2023-12-22T05:33:59;100412.91;;;11.01;100.00
76011;BME280;64701;43.536;1.478;2023-12-22T05:36:25;100426.81;;;11.03;100.00
76011;BME280;64701;43.536;1.478;2023-12-22T05:38:50;100424.50;;;11.00;100.00
76011;BME280;64701;43.536;1.478;2023-12-22T05:41:16;100432.63;;;10.99;100.00
76011;BME280;64701;43.536;1.478;2023-12-22T05:43:41;100431.78;;;10.98;100.00
76011;BME280;64701;43.536;1.478;2023-12-22T05:46:06;100438.09;;;10.97;100.00
76011;BME280;64701;43.536;1.478;2023-12-22T05:48:33;100440.41;;;11.00;100.00
76011;BME280;64701;43.536;1.478;2023-12-22T05:50:59;100444.34;;;11.04;100.00
76011;BME280;64701;43.536;1.478;2023-12-22T05:53:24;100450.66;;;11.03;100.00
76011;BME280;64701;43.536;1.478;2023-12-22T05:55:49;100447.38;;;11.01;100.00
76011;BME280;64701;43.536;1.478;2023-12-22T05:58:14;100461.25;;;11.03;100.00
76011;BME280;64701;43.536;1.478;2023-12-22T06:00:40;100460.44;;;11.03;100.00
76011;BME280;64701;43.536;1.478;2023-12-22T06:03:05;100463.56;;;11.07;100.00
76011;BME280;64701;43.536;1.478;2023-12-22T06:05:31;100460.94;;;11.07;100.00
76011;BME280;64701;43.536;1.478;2023-12-22T06:07:56;100471.16;;;11.10;100.00
76011;BME280;64701;43.536;1.478;2023-12-22T06:10:21;100474.50;;;11.03;100.00
76011;BME280;64701;43.536;1.478;2023-12-22T06:12:46;100479.16;;;11.01;100.00
76011;BME280;64701;43.536;1.478;2023-12-22T06:15:12;100478.97;;;11.03;100.00
76011;BME280;64701;43.536;1.478;2023-12-22T06:17:37;100479.50;;;10.98;100.00
76011;BME280;64701;43.536;1.478;2023-12-22T06:20:02;100481.81;;;11.01;100.00
76011;BME280;64701;43.536;1.478;2023-12-22T06:22:28;100466.91;;;11.00;100.00
76011;BME280;64701;43.536;1.478;2023-12-22T06:24:53;100474.69;;;11.02;100.00
76011;BME280;64701;43.536;1.478;2023-12-22T06:27:18;100473.72;;;10.95;100.00
76011;BME280;64701;43.536;1.478;2023-12-22T06:29:43;100472.06;;;10.94;100.00
76011;BME280;64701;43.536;1.478;2023-12-22T06:32:09;100473.53;;;10.96;100.00
76011;BME280;64701;43.536;1.478;2023-12-22T06:34:34;100479.16;;;11.01;100.00
76011;BME280;64701;43.536;1.478;2023-12-22T06:36:59;100476.31;;;11.03;100.00
76011;BME280;64701;43.536;1.478;2023-12-22T06:39:24;100465.25;;;10.99;100.00
76011;BME280;64701;43.536;1.478;2023-12-22T06:41:50;100455.81;;;10.97;100.00
76011;BME280;64701;43.536;1.478;2023-12-22T06:44:16;100458.97;;;11.00;100.00
76011;BME280;64701;43.536;1.478;2023-12-22T06:46:41;100457.13;;;11.01;100.00
76011;BME280;64701;43.536;1.478;2023-12-22T06:49:06;100462.59;;;10.99;100.00
76011;BME280;64701;43.536;1.478;2023-12-22T06:51:32;100475.84;;;10.99;100.00
76011;BME280;64701;43.536;1.478;2023-12-22T06:54:00;100469.41;;;11.02;100.00
76011;BME280;64701;43.536;1.478;2023-12-22T06:56:26;100460.63;;;10.93;100.00
76011;BME280;64701;43.536;1.478;2023-12-22T06:58:52;100474.88;;;11.00;100.00
76011;BME280;64701;43.536;1.478;2023-12-22T07:01:18;100481.47;;;11.04;100.00
76011;BME280;64701;43.536;1.478;2023-12-22T07:03:44;100469.22;;;11.03;100.00
76011;BME280;64701;43.536;1.478;2023-12-22T07:06:10;100480.47;;;11.05;100.00
76011;BME280;64701;43.536;1.478;2023-12-22T07:08:35;100474.34;;;11.05;100.00
76011;BME280;64701;43.536;1.478;2023-12-22T07:11:00;100481.81;;;11.01;100.00
76011;BME280;64701;43.536;1.478;2023-12-22T07:13:25;100478.34;;;11.01;100.00
76011;BME280;64701;43.536;1.478;2023-12-22T07:15:51;100478.50;;;11.08;100.00
76011;BME280;64701;43.536;1.478;2023-12-22T07:18:16;100483.78;;;11.08;100.00
76011;BME280;64701;43.536;1.478;2023-12-22T07:20:42;100485.78;;;11.05;100.00
76011;BME280;64701;43.536;1.478;2023-12-22T07:23:09;100479.81;;;11.03;100.00
76011;BME280;64701;43.536;1.478;2023-12-22T07:25:36;100481.47;;;11.04;100.00
76011;BME280;64701;43.536;1.478;2023-12-22T07:28:01;100484.28;;;11.03;100.00
76011;BME280;64701;43.536;1.478;2023-12-22T07:30:26;100489.78;;;11.01;100.00
76011;BME280;64701;43.536;1.478;2023-12-22T07:32:52;100489.41;;;11.04;100.00
76011;BME280;64701;43.536;1.478;2023-12-22T07:35:17;100482.97;;;11.07;100.00
76011;BME280;64701;43.536;1.478;2023-12-22T07:37:42;100493.38;;;11.09;100.00
76011;BME280;64701;43.536;1.478;2023-12-22T07:40:08;100498.03;;;11.07;100.00
76011;BME280;64701;43.536;1.478;2023-12-22T07:42:33;100501.00;;;11.03;100.00
76011;BME280;64701;43.536;1.478;2023-12-22T07:44:59;100505.31;;;11.04;100.00
76011;BME280;64701;43.536;1.478;2023-12-22T07:47:24;100509.78;;;11.12;100.00
76011;BME280;64701;43.536;1.478;2023-12-22T07:49:49;100515.59;;;11.08;100.00
76011;BME280;64701;43.536;1.478;2023-12-22T07:52:15;100516.75;;;11.05;100.00
76011;BME280;64701;43.536;1.478;2023-12-22T07:54:40;100516.91;;;11.12;100.00
76011;BME280;64701;43.536;1.478;2023-12-22T07:57:05;100516.91;;;11.12;100.00
76011;BME280;64701;43.536;1.478;2023-12-22T07:59:30;100510.75;;;11.11;100.00
76011;BME280;64701;43.536;1.478;2023-12-22T08:01:56;100517.50;;;11.22;100.00
76011;BME280;64701;43.536;1.478;2023-12-22T08:04:21;100518.03;;;11.17;100.00
76011;BME280;64701;43.536;1.478;2023-12-22T08:06:46;100530.94;;;11.20;100.00
76011;BME280;64701;43.536;1.478;2023-12-22T08:09:11;100538.09;;;11.20;100.00
76011;BME280;64701;43.536;1.478;2023-12-22T08:11:37;100534.41;;;11.21;100.00
76011;BME280;64701;43.536;1.478;2023-12-22T08:14:02;100534.25;;;11.22;100.00
76011;BME280;64701;43.536;1.478;2023-12-22T08:16:28;100536.56;;;11.25;100.00
76011;BME280;64701;43.536;1.478;2023-12-22T08:18:53;100545.53;;;11.24;100.00
76011;BME280;64701;43.536;1.478;2023-12-22T08:21:18;100542.03;;;11.24;100.00
76011;BME280;64701;43.536;1.478;2023-12-22T08:23:44;100550.97;;;11.23;100.00
76011;BME280;64701;43.536;1.478;2023-12-22T08:26:09;100546.97;;;11.27;100.00
76011;BME280;64701;43.536;1.478;2023-12-22T08:28:34;100553.63;;;11.23;100.00
76011;BME280;64701;43.536;1.478;2023-12-22T08:30:59;100551.66;;;11.25;100.00
76011;BME280;64701;43.536;1.478;2023-12-22T08:33:24;100548.03;;;11.18;100.00
76011;BME280;64701;43.536;1.478;2023-12-22T08:35:50;100552.03;;;11.14;100.00
76011;BME280;64701;43.536;1.478;2023-12-22T08:38:15;100561.94;;;11.20;100.00
76011;BME280;64701;43.536;1.478;2023-12-22T08:40:40;100556.28;;;11.23;100.00
76011;BME280;64701;43.536;1.478;2023-12-22T08:43:06;100558.28;;;11.21;100.00
76011;BME280;64701;43.536;1.478;2023-12-22T08:45:31;100563.94;;;11.18;100.00
76011;BME280;64701;43.536;1.478;2023-12-22T08:47:57;100566.06;;;11.22;100.00
76011;BME280;64701;43.536;1.478;2023-12-22T08:50:22;100569.03;;;11.27;100.00
76011;BME280;64701;43.536;1.478;2023-12-22T08:52:47;100564.22;;;11.31;100.00
76011;BME280;64701;43.536;1.478;2023-12-22T08:55:13;100569.53;;;11.31;100.00
76011;BME280;64701;43.536;1.478;2023-12-22T08:57:39;100566.69;;;11.32;100.00
76011;BME280;64701;43.536;1.478;2023-12-22T09:00:04;100570.34;;;11.31;100.00
76011;BME280;64701;43.536;1.478;2023-12-22T09:02:30;100574.16;;;11.37;100.00
76011;BME280;64701;43.536;1.478;2023-12-22T09:04:55;100580.09;;;11.39;100.00
76011;BME280;64701;43.536;1.478;2023-12-22T09:07:20;100585.59;;;11.37;100.00
76011;BME280;64701;43.536;1.478;2023-12-22T09:09:47;100582.41;;;11.42;100.00
76011;BME280;64701;43.536;1.478;2023-12-22T09:12:12;100592.66;;;11.45;100.00
76011;BME280;64701;43.536;1.478;2023-12-22T09:14:38;100574.59;;;11.49;100.00
76011;BME280;64701;43.536;1.478;2023-12-22T09:17:03;100579.72;;;11.50;100.00
76011;BME280;64701;43.536;1.478;2023-12-22T09:19:28;100589.84;;;11.55;100.00
76011;BME280;64701;43.536;1.478;2023-12-22T09:21:53;100589.97;;;11.61;100.00
76011;BME280;64701;43.536;1.478;2023-12-22T09:24:19;100584.00;;;11.59;100.00
76011;BME280;64701;43.536;1.478;2023-12-22T09:26:44;100589.97;;;11.61;100.00
76011;BME280;64701;43.536;1.478;2023-12-22T09:29:09;100575.06;;;11.60;100.00
76011;BME280;64701;43.536;1.478;2023-12-22T09:31:34;100578.03;;;11.57;100.00
76011;BME280;64701;43.536;1.478;2023-12-22T09:34:00;100578.03;;;11.57;100.00
76011;BME280;64701;43.536;1.478;2023-12-22T09:36:25;100592.63;;;11.61;100.00
76011;BME280;64701;43.536;1.478;2023-12-22T09:38:50;100592.75;;;11.68;100.00
76011;BME280;64701;43.536;1.478;2023-12-22T09:41:16;100581.78;;;11.71;100.00
76011;BME280;64701;43.536;1.478;2023-12-22T09:43:41;100588.63;;;11.73;100.00
76011;BME280;64701;43.536;1.478;2023-12-22T09:46:07;100586.28;;;11.70;100.00
76011;BME280;64701;43.536;1.478;2023-12-22T09:48:32;100589.09;;;11.69;100.00
76011;BME280;64701;43.536;1.478;2023-12-22T09:51:00;100592.72;;;11.84;100.00
76011;BME280;64701;43.536;1.478;2023-12-22T09:53:26;100590.22;;;11.82;100.00
76011;BME280;64701;43.536;1.478;2023-12-22T09:55:53;100602.63;;;11.90;100.00
76011;BME280;64701;43.536;1.478;2023-12-22T09:58:19;100607.59;;;11.93;100.00
76011;BME280;64701;43.536;1.478;2023-12-22T10:00:44;100607.59;;;11.93;100.00
76011;BME280;64701;43.536;1.478;2023-12-22T10:03:10;100613.72;;;11.94;100.00
76011;BME280;64701;43.536;1.478;2023-12-22T10:05:37;100615.38;;;11.95;100.00
76011;BME280;64701;43.536;1.478;2023-12-22T10:08:02;100614.69;;;12.01;100.00
76011;BME280;64701;43.536;1.478;2023-12-22T10:10:28;100613.03;;;12.00;100.00
76011;BME280;64701;43.536;1.478;2023-12-22T10:12:54;100620.00;;;12.01;100.00
76011;BME280;64701;43.536;1.478;2023-12-22T10:15:19;100618.31;;;12.08;100.00
76011;BME280;64701;43.536;1.478;2023-12-22T10:17:48;100621.66;;;12.02;100.00
76011;BME280;64701;43.536;1.478;2023-12-22T10:20:14;100619.19;;;11.92;100.00
76011;BME280;64701;43.536;1.478;2023-12-22T10:22:39;100615.03;;;11.98;100.00
76011;BME280;64701;43.536;1.478;2023-12-22T10:25:05;100615.75;;;11.92;100.00
76011;BME280;64701;43.536;1.478;2023-12-22T10:27:31;100608.28;;;11.87;100.00
76011;BME280;64701;43.536;1.478;2023-12-22T10:29:57;100610.59;;;11.90;100.00
76011;BME280;64701;43.536;1.478;2023-12-22T10:32:23;100604.47;;;11.90;100.00
76011;BME280;64701;43.536;1.478;2023-12-22T10:34:50;100601.22;;;11.79;100.00
76011;BME280;64701;43.536;1.478;2023-12-22T10:37:16;100603.66;;;11.81;100.00
76011;BME280;64701;43.536;1.478;2023-12-22T10:39:41;100611.13;;;11.85;100.00
76011;BME280;64701;43.536;1.478;2023-12-22T10:42:07;100615.75;;;11.92;100.00
76011;BME280;64701;43.536;1.478;2023-12-22T10:44:32;100624.69;;;11.91;100.00
76011;BME280;64701;43.536;1.478;2023-12-22T10:46:58;100612.06;;;11.93;100.00
76011;BME280;64701;43.536;1.478;2023-12-22T10:49:24;100605.44;;;11.97;100.00
76011;BME280;64701;43.536;1.478;2023-12-22T10:51:49;100611.38;;;11.99;100.00
76011;BME280;64701;43.536;1.478;2023-12-22T10:54:15;100603.25;;;12.00;100.00
76011;BME280;64701;43.536;1.478;2023-12-22T10:56:41;100603.78;;;11.96;100.00
76011;BME280;64701;43.536;1.478;2023-12-22T10:59:07;100597.47;;;11.97;100.00
76011;BME280;64701;43.536;1.478;2023-12-22T11:01:32;100591.63;;;12.01;100.00
76011;BME280;64701;43.536;1.478;2023-12-22T11:04:04;100592.50;;;11.94;100.00
76011;BME280;64701;43.536;1.478;2023-12-22T11:06:30;100596.81;;;11.95;100.00
76011;BME280;64701;43.536;1.478;2023-12-22T11:08:59;100592.50;;;11.94;100.00
76011;BME280;64701;43.536;1.478;2023-12-22T11:11:32;100594.50;;;11.92;100.00
76011;BME280;64701;43.536;1.478;2023-12-22T11:14:01;100587.00;;;11.95;100.00
76011;BME280;64701;43.536;1.478;2023-12-22T11:16:28;100582.88;;;11.93;100.00
76011;BME280;64701;43.536;1.478;2023-12-22T11:18:53;100584.59;;;11.85;100.00
76011;BME280;64701;43.536;1.478;2023-12-22T11:21:21;100577.63;;;11.84;100.00
76011;BME280;64701;43.536;1.478;2023-12-22T11:23:46;100566.00;;;11.85;100.00
76011;BME280;64701;43.536;1.478;2023-12-22T11:26:12;100568.66;;;11.85;100.00
76011;BME280;64701;43.536;1.478;2023-12-22T11:28:39;100560.72;;;11.85;100.00
76011;BME280;64701;43.536;1.478;2023-12-22T11:31:06;100562.69;;;11.83;100.00
76011;BME280;64701;43.536;1.478;2023-12-22T11:33:32;100568.47;;;11.87;100.00
76011;BME280;64701;43.536;1.478;2023-12-22T11:35:59;100560.34;;;11.89;100.00
76011;BME280;64701;43.536;1.478;2023-12-22T11:38:26;100560.19;;;11.90;100.00
76011;BME280;64701;43.536;1.478;2023-12-22T11:40:51;100567.16;;;11.91;100.00
76011;BME280;64701;43.536;1.478;2023-12-22T11:43:17;100561.84;;;11.91;100.00
76011;BME280;64701;43.536;1.478;2023-12-22T11:45:43;100558.53;;;11.89;100.00
76011;BME280;64701;43.536;1.478;2023-12-22T11:48:09;100573.28;;;11.92;100.00
76011;BME280;64701;43.536;1.478;2023-12-22T11:50:35;100563.28;;;11.94;100.00
76011;BME280;64701;43.536;1.478;2023-12-22T11:53:22;100559.59;;;12.03;100.00
76011;BME280;64701;43.536;1.478;2023-12-22T11:58:35;100542.97;;;12.09;100.00
76011;BME280;64701;43.536;1.478;2023-12-22T12:01:03;100533.47;;;12.14;100.00
76011;BME280;64701;43.536;1.478;2023-12-22T12:03:30;100544.38;;;12.19;100.00
76011;BME280;64701;43.536;1.478;2023-12-22T12:08:40;100530.81;;;12.14;100.00
76011;BME280;64701;43.536;1.478;2023-12-22T12:11:06;100521.53;;;12.10;100.00
76011;BME280;64701;43.536;1.478;2023-12-22T12:13:33;100530.03;;;12.06;100.00
76011;BME280;64701;43.536;1.478;2023-12-22T12:15:59;100517.34;;;12.16;100.00
76011;BME280;64701;43.536;1.478;2023-12-22T12:18:29;100515.19;;;12.19;100.00
76011;BME280;64701;43.536;1.478;2023-12-22T12:20:54;100519.97;;;12.24;100.00
76011;BME280;64701;43.536;1.478;2023-12-22T12:23:20;100523.28;;;12.26;100.00
76011;BME280;64701;43.536;1.478;2023-12-22T12:25:46;100520.06;;;12.31;100.00
76011;BME280;64701;43.536;1.478;2023-12-22T12:28:12;100517.59;;;12.29;100.00
76011;BME280;64701;43.536;1.478;2023-12-22T12:30:38;100503.19;;;12.23;100.00
76011;BME280;64701;43.536;1.478;2023-12-22T12:33:11;100526.63;;;12.20;100.00
76011;BME280;64701;43.536;1.478;2023-12-22T12:35:40;100517.84;;;12.19;100.00
76011;BME280;64701;43.536;1.478;2023-12-22T12:38:05;100507.69;;;12.23;100.00
76011;BME280;64701;43.536;1.478;2023-12-22T12:40:31;100515.19;;;12.19;100.00